»·PEaware :: N516RP KSBP-KSMX

N516RP :: KSBP-KSMX

FLIGHT INFORMATION

Flight Status: Arrived
Operator: Privately registered:
United States
More flights under this callsign
Pilot: Paul P. (32265)
Aircraft: CESSNA 172 SKYHAWK
(C172)
More flights by this aircraft type
Origin: KSBP San Luis Co Regl
United States
Destination: KSMX Santa Maria Pub/Capt Hancock
United States
More flights between these airports :: More routes between these airports
Route: KSBP KSMX DIRECT
File this flight plan on PilotEdge
Remarks:
Altitude:
(Current/Filed)
3,500ft
Speed:
(Current/Filed)
112kts
Departed: 31-Oct-20 08:15 PM
Arrived: 31-Oct-20 08:32 PM
Distance/Time
Traveled:
22nm/0:17
Distance/Time
To Go:
Arrived

Flight Plot

Page will automatically refresh every two minutes.

Flight plan parsing failed; only flown route is shown


Map Options




Map Legend


Flown Route
Filed Route
Departure Airport
Arrival Airport
Navaid (VOR, NDB)
Fix

Horizontal Profiles

Position Reports

Time Latitude Longitude Heading Altitude Ground
Speed
31-Oct-20 19:31 35.239224 -120.641802 88 188ft 0kts
31-Oct-20 19:32 35.239224 -120.641802 88 188ft 0kts
31-Oct-20 19:33 35.239224 -120.641802 88 188ft 0kts
31-Oct-20 19:35 35.239224 -120.641802 88 188ft 0kts
31-Oct-20 19:36 35.239224 -120.641802 88 188ft 0kts
31-Oct-20 19:37 35.239224 -120.641802 88 188ft 0kts
31-Oct-20 19:38 35.239224 -120.641802 88 188ft 0kts
31-Oct-20 19:39 35.239224 -120.641802 88 188ft 0kts
31-Oct-20 19:40 35.239224 -120.641802 88 188ft 0kts
31-Oct-20 19:41 35.239224 -120.641802 88 188ft 0kts
31-Oct-20 19:42 35.239224 -120.641802 88 188ft 0kts
31-Oct-20 19:43 35.239224 -120.641802 88 188ft 0kts
31-Oct-20 19:44 35.239224 -120.641802 88 188ft 0kts
31-Oct-20 19:45 35.239224 -120.641802 88 188ft 0kts
31-Oct-20 19:46 35.239224 -120.641802 88 188ft 0kts
31-Oct-20 19:47 35.239224 -120.641802 88 188ft 0kts
31-Oct-20 19:48 35.239224 -120.641802 88 188ft 0kts
31-Oct-20 19:49 35.239224 -120.641802 88 188ft 0kts
31-Oct-20 19:50 35.239224 -120.641802 88 188ft 0kts
31-Oct-20 19:50 35.239224 -120.641802 88 188ft 0kts
31-Oct-20 19:52 35.239224 -120.641802 88 188ft 0kts
31-Oct-20 19:52 35.239224 -120.641802 88 188ft 0kts
31-Oct-20 19:54 35.239224 -120.641802 88 188ft 0kts
31-Oct-20 19:54 35.239224 -120.641802 88 188ft 0kts
31-Oct-20 19:56 35.239224 -120.641802 88 188ft 0kts
31-Oct-20 19:56 35.239224 -120.641802 88 188ft 0kts
31-Oct-20 19:58 35.239224 -120.641802 88 188ft 0kts
31-Oct-20 19:58 35.239224 -120.641802 88 188ft 0kts
31-Oct-20 19:59 35.239224 -120.641802 88 188ft 0kts
31-Oct-20 20:00 35.239224 -120.641802 88 188ft 0kts
31-Oct-20 20:01 35.239224 -120.641802 88 188ft 0kts
31-Oct-20 20:02 35.239224 -120.641802 88 188ft 0kts
31-Oct-20 20:03 35.239224 -120.641802 88 188ft 0kts
31-Oct-20 20:04 35.239224 -120.641802 88 188ft 0kts
31-Oct-20 20:05 35.239224 -120.641802 88 188ft 0kts
31-Oct-20 20:06 35.239224 -120.641802 88 188ft 0kts
31-Oct-20 20:07 35.239224 -120.641802 88 188ft 0kts
31-Oct-20 20:08 35.239224 -120.641802 88 188ft 0kts
31-Oct-20 20:09 35.239224 -120.641802 88 188ft 0kts
31-Oct-20 20:10 35.238844 -120.641828 141 188ft 10kts
31-Oct-20 20:11 35.236203 -120.637123 124 203ft 17kts
31-Oct-20 20:12 35.233301 -120.632405 190 219ft 5kts
31-Oct-20 20:13 35.233217 -120.632433 207 219ft 0kts
31-Oct-20 20:14 35.236057 -120.638916 303 214ft 81kts
31-Oct-20 20:15 35.246346 -120.661897 235 1014ft 81kts
31-Oct-20 20:16 35.229680 -120.653965 125 1717ft 82kts
31-Oct-20 20:17 35.208443 -120.641663 158 2388ft 87kts
31-Oct-20 20:18 35.186661 -120.629023 150 3007ft 87kts
31-Oct-20 20:19 35.161877 -120.618513 158 3514ft 110kts
31-Oct-20 20:20 35.131092 -120.606827 157 3669ft 118kts
31-Oct-20 20:21 35.099308 -120.593243 158 3639ft 126kts
31-Oct-20 20:22 35.065666 -120.581154 159 3226ft 122kts
31-Oct-20 20:23 35.035155 -120.569191 153 3403ft 107kts
31-Oct-20 20:24 35.007214 -120.554836 152 3532ft 113kts
31-Oct-20 20:25 34.978649 -120.534929 143 3159ft 120kts
31-Oct-20 20:26 34.953301 -120.507839 131 2545ft 119kts
31-Oct-20 20:27 34.929737 -120.478635 134 1964ft 123kts
31-Oct-20 20:28 34.905655 -120.449259 134 1199ft 111kts
31-Oct-20 20:29 34.883513 -120.429387 202 1097ft 86kts
31-Oct-20 20:30 34.897326 -120.451311 311 246ft 63kts
31-Oct-20 20:31 34.903359 -120.456833 42 232ft 9kts
31-Oct-20 20:32 34.902916 -120.455477 135 234ft 17kts
31-Oct-20 20:33 34.901375 -120.452189 48 241ft 0kts
31-Oct-20 20:34 34.901375 -120.452189 48 241ft 0kts
31-Oct-20 20:35 34.901374 -120.452189 48 241ft 0kts
31-Oct-20 20:36 34.901374 -120.452189 48 241ft 0kts
31-Oct-20 20:37 34.901374 -120.452189 48 241ft 0kts
31-Oct-20 20:38 34.901375 -120.452189 48 241ft 0kts
31-Oct-20 20:39 34.901375 -120.452189 48 241ft 0kts
31-Oct-20 20:40 34.901374 -120.452189 48 241ft 0kts
31-Oct-20 20:41 34.901374 -120.452189 48 241ft 0kts
31-Oct-20 20:42 34.901375 -120.452189 48 241ft 0kts

Navigation Log

Ident Type
Flight plan parsing failed, navigation log unavailable